AAL2040 KLGA-KMIA
Flight info
| Callsign | AAL2040 |
|---|---|
| Flight time | N/A |
| Altitude | 34000 |
| Route | WHITE Q409 CRPLR BGBRD Q101 SKARP Y313 HOAGG BNFSH3 |
| Aircraft | B738/M-SDE2E3FGHIRWXY/LB1 |
Departure
| Time | 2026-05-07 01:45 |
|---|---|
| Airport | LaGuardia Airport (KLGA) |
Arrival
| Time | N/A |
|---|---|
| Airport | Miami International Airport (KMIA) |
| Time | Latitude | Longitude | Altitude | Speed | Heading |
|---|---|---|---|---|---|
| 2026-05-07 01:02 | 40.76949 | -73.86193 | 16 ft | 0 kts | 134° |
| 2026-05-07 01:32 | 40.76963 | -73.86210 | 17 ft | 4 kts | 148° |
| 2026-05-07 01:32 | 40.76985 | -73.86228 | 15 ft | 4 kts | 142° |
| 2026-05-07 01:32 | 40.77002 | -73.86253 | 16 ft | 4 kts | 99° |
| 2026-05-07 01:33 | 40.76997 | -73.86283 | 16 ft | 4 kts | 49° |
| 2026-05-07 01:33 | 40.76988 | -73.86296 | 15 ft | 1 kts | 41° |
| 2026-05-07 01:33 | 40.76987 | -73.86297 | 16 ft | 1 kts | 41° |
| 2026-05-07 01:34 | 40.76993 | -73.86290 | 15 ft | 4 kts | 41° |
| 2026-05-07 01:35 | 40.76998 | -73.86284 | 15 ft | 0 kts | 41° |
| 2026-05-07 01:35 | 40.77000 | -73.86282 | 17 ft | 0 kts | 41° |
| 2026-05-07 01:35 | 40.77005 | -73.86276 | 16 ft | 1 kts | 41° |
| 2026-05-07 01:35 | 40.77015 | -73.86265 | 14 ft | 2 kts | 41° |
| 2026-05-07 01:36 | 40.77027 | -73.86250 | 15 ft | 3 kts | 41° |
| 2026-05-07 01:36 | 40.77035 | -73.86241 | 14 ft | 0 kts | 41° |
| 2026-05-07 01:36 | 40.77037 | -73.86239 | 14 ft | 0 kts | 41° |
| 2026-05-07 01:36 | 40.77050 | -73.86223 | 14 ft | 6 kts | 41° |
| 2026-05-07 01:37 | 40.77098 | -73.86168 | 11 ft | 9 kts | 38° |
| 2026-05-07 01:37 | 40.77158 | -73.86162 | 11 ft | 9 kts | 1° |
| 2026-05-07 01:37 | 40.77207 | -73.86139 | 13 ft | 7 kts | 27° |
| 2026-05-07 01:37 | 40.77248 | -73.86108 | 14 ft | 7 kts | 18° |
| 2026-05-07 01:38 | 40.77298 | -73.86139 | 15 ft | 10 kts | 311° |
| 2026-05-07 01:38 | 40.77333 | -73.86215 | 14 ft | 13 kts | 301° |
| 2026-05-07 01:38 | 40.77395 | -73.86345 | 11 ft | 20 kts | 303° |
| 2026-05-07 01:38 | 40.77446 | -73.86447 | 11 ft | 12 kts | 303° |
| 2026-05-07 01:39 | 40.77491 | -73.86539 | 10 ft | 12 kts | 301° |
| 2026-05-07 01:39 | 40.77534 | -73.86635 | 9 ft | 12 kts | 300° |
| 2026-05-07 01:39 | 40.77573 | -73.86721 | 10 ft | 11 kts | 303° |
| 2026-05-07 01:39 | 40.77620 | -73.86817 | 11 ft | 15 kts | 302° |
| 2026-05-07 01:40 | 40.77672 | -73.86924 | 11 ft | 13 kts | 303° |
| 2026-05-07 01:40 | 40.77725 | -73.87032 | 14 ft | 15 kts | 302° |
| 2026-05-07 01:40 | 40.77759 | -73.87103 | 16 ft | 0 kts | 302° |
| 2026-05-07 01:41 | 40.77760 | -73.87106 | 16 ft | 2 kts | 302° |
| 2026-05-07 01:41 | 40.77785 | -73.87157 | 16 ft | 11 kts | 302° |
| 2026-05-07 01:41 | 40.77828 | -73.87248 | 16 ft | 12 kts | 302° |
| 2026-05-07 01:41 | 40.77862 | -73.87321 | 17 ft | 8 kts | 302° |
| 2026-05-07 01:42 | 40.77889 | -73.87377 | 17 ft | 7 kts | 302° |
| 2026-05-07 01:42 | 40.77914 | -73.87429 | 16 ft | 5 kts | 304° |
| 2026-05-07 01:42 | 40.77922 | -73.87444 | 16 ft | 2 kts | 304° |
| 2026-05-07 01:42 | 40.77934 | -73.87468 | 15 ft | 5 kts | 304° |
| 2026-05-07 01:43 | 40.77957 | -73.87513 | 14 ft | 7 kts | 304° |
| 2026-05-07 01:43 | 40.77985 | -73.87571 | 14 ft | 8 kts | 300° |
| 2026-05-07 01:43 | 40.78011 | -73.87630 | 15 ft | 7 kts | 300° |
| 2026-05-07 01:43 | 40.78038 | -73.87689 | 16 ft | 8 kts | 302° |
| 2026-05-07 01:44 | 40.78072 | -73.87761 | 15 ft | 11 kts | 302° |
| 2026-05-07 01:44 | 40.78126 | -73.87846 | 15 ft | 12 kts | 325° |
| 2026-05-07 01:44 | 40.78197 | -73.87833 | 15 ft | 12 kts | 66° |
| 2026-05-07 01:44 | 40.78188 | -73.87765 | 13 ft | 7 kts | 115° |
| 2026-05-07 01:45 | 40.78119 | -73.87621 | 11 ft | 49 kts | 122° |
| 2026-05-07 01:45 | 40.77801 | -73.86954 | 16 ft | 120 kts | 122° |
| 2026-05-07 01:45 | 40.77252 | -73.85812 | 168 ft | 164 kts | 123° |
| 2026-05-07 01:45 | 40.76655 | -73.84520 | 854 ft | 169 kts | 125° |
| 2026-05-07 01:46 | 40.76009 | -73.83127 | 1461 ft | 183 kts | 127° |
| 2026-05-07 01:46 | 40.75588 | -73.81454 | 1952 ft | 212 kts | 88° |
| 2026-05-07 01:46 | 40.76135 | -73.79593 | 2296 ft | 230 kts | 44° |
| 2026-05-07 01:46 | 40.77407 | -73.78216 | 2632 ft | 243 kts | 30° |
| 2026-05-07 01:47 | 40.78786 | -73.76878 | 3239 ft | 248 kts | 32° |
| 2026-05-07 01:47 | 40.80191 | -73.75526 | 3903 ft | 254 kts | 27° |
| 2026-05-07 01:47 | 40.81817 | -73.74368 | 4239 ft | 277 kts | 20° |
| 2026-05-07 01:47 | 40.83595 | -73.73240 | 4892 ft | 288 kts | 21° |
| 2026-05-07 01:48 | 40.85420 | -73.72056 | 5663 ft | 295 kts | 21° |
| 2026-05-07 01:48 | 40.87277 | -73.70825 | 6411 ft | 302 kts | 20° |
| 2026-05-07 01:48 | 40.89175 | -73.69551 | 7122 ft | 309 kts | 21° |
| 2026-05-07 01:48 | 40.91106 | -73.68230 | 7897 ft | 314 kts | 21° |
| 2026-05-07 01:49 | 40.93050 | -73.66895 | 8718 ft | 318 kts | 21° |
| 2026-05-07 01:49 | 40.95037 | -73.65535 | 9412 ft | 325 kts | 20° |
| 2026-05-07 01:49 | 40.97044 | -73.64183 | 9914 ft | 322 kts | 19° |
| 2026-05-07 01:49 | 40.99068 | -73.62865 | 9989 ft | 326 kts | 17° |
| 2026-05-07 01:50 | 41.01197 | -73.62090 | 9993 ft | 309 kts | 353° |
| 2026-05-07 01:50 | 41.03221 | -73.62498 | 10005 ft | 286 kts | 327° |
| 2026-05-07 01:50 | 41.04777 | -73.63930 | 10012 ft | 264 kts | 301° |
| 2026-05-07 01:50 | 41.05572 | -73.66004 | 10007 ft | 251 kts | 275° |
| 2026-05-07 01:51 | 41.05584 | -73.68395 | 10006 ft | 274 kts | 257° |
| 2026-05-07 01:51 | 41.04851 | -73.70829 | 10115 ft | 298 kts | 237° |
| 2026-05-07 01:51 | 41.03383 | -73.72830 | 10652 ft | 312 kts | 219° |
| 2026-05-07 01:51 | 41.01409 | -73.74160 | 11347 ft | 323 kts | 209° |
| 2026-05-07 01:52 | 40.99303 | -73.75262 | 12052 ft | 327 kts | 207° |
| 2026-05-07 01:52 | 40.97155 | -73.76320 | 12716 ft | 332 kts | 207° |
| 2026-05-07 01:52 | 40.94974 | -73.77386 | 13382 ft | 336 kts | 207° |
| 2026-05-07 01:52 | 40.92766 | -73.78477 | 14015 ft | 340 kts | 207° |
| 2026-05-07 01:53 | 40.90543 | -73.79587 | 14637 ft | 343 kts | 207° |
| 2026-05-07 01:53 | 40.88301 | -73.80718 | 15267 ft | 346 kts | 208° |
| 2026-05-07 01:53 | 40.86046 | -73.81863 | 15845 ft | 350 kts | 208° |
| 2026-05-07 01:53 | 40.83764 | -73.83028 | 15939 ft | 351 kts | 207° |
| 2026-05-07 01:54 | 40.81491 | -73.84187 | 15987 ft | 351 kts | 207° |
| 2026-05-07 01:54 | 40.79203 | -73.85358 | 16009 ft | 353 kts | 207° |
| 2026-05-07 01:54 | 40.76911 | -73.86530 | 15997 ft | 352 kts | 207° |
| 2026-05-07 01:54 | 40.74631 | -73.87695 | 15999 ft | 351 kts | 207° |
| 2026-05-07 01:55 | 40.72349 | -73.88861 | 16001 ft | 351 kts | 207° |
| 2026-05-07 01:55 | 40.70074 | -73.90024 | 16004 ft | 351 kts | 207° |
| 2026-05-07 01:55 | 40.67798 | -73.91187 | 16023 ft | 351 kts | 207° |
| 2026-05-07 01:55 | 40.65519 | -73.92351 | 16017 ft | 351 kts | 207° |
| 2026-05-07 01:56 | 40.63238 | -73.93515 | 16000 ft | 352 kts | 207° |
| 2026-05-07 01:56 | 40.60957 | -73.94678 | 16011 ft | 352 kts | 207° |
| 2026-05-07 01:56 | 40.58672 | -73.95843 | 16012 ft | 353 kts | 207° |
| 2026-05-07 01:56 | 40.56380 | -73.97010 | 16017 ft | 353 kts | 207° |
| 2026-05-07 01:57 | 40.54086 | -73.98177 | 16020 ft | 354 kts | 207° |
| 2026-05-07 01:57 | 40.51785 | -73.99347 | 16022 ft | 354 kts | 207° |
| 2026-05-07 01:57 | 40.49482 | -74.00517 | 16031 ft | 355 kts | 207° |
| 2026-05-07 01:57 | 40.47179 | -74.01685 | 16033 ft | 355 kts | 207° |
| 2026-05-07 01:58 | 40.44876 | -74.02853 | 16025 ft | 354 kts | 207° |
| 2026-05-07 01:58 | 40.42577 | -74.04018 | 16001 ft | 354 kts | 207° |
| 2026-05-07 01:58 | 40.40287 | -74.05177 | 16016 ft | 353 kts | 207° |
| 2026-05-07 01:58 | 40.37991 | -74.06339 | 16024 ft | 353 kts | 207° |
| 2026-05-07 01:59 | 40.35700 | -74.07498 | 16025 ft | 353 kts | 207° |
| 2026-05-07 01:59 | 40.33408 | -74.08657 | 16021 ft | 353 kts | 207° |
| 2026-05-07 01:59 | 40.31111 | -74.09817 | 16031 ft | 354 kts | 207° |
| 2026-05-07 01:59 | 40.28816 | -74.10976 | 16031 ft | 354 kts | 207° |
| 2026-05-07 02:00 | 40.26500 | -74.12145 | 16340 ft | 358 kts | 207° |
| 2026-05-07 02:00 | 40.24179 | -74.13316 | 16998 ft | 359 kts | 207° |
| 2026-05-07 02:00 | 40.21827 | -74.14501 | 17565 ft | 364 kts | 207° |
| 2026-05-07 02:00 | 40.19454 | -74.15696 | 18138 ft | 367 kts | 207° |
| 2026-05-07 02:01 | 40.17058 | -74.16901 | 18662 ft | 370 kts | 208° |
| 2026-05-07 02:01 | 40.14649 | -74.18111 | 19199 ft | 372 kts | 208° |
| 2026-05-07 02:01 | 40.12225 | -74.19328 | 19766 ft | 373 kts | 209° |
| 2026-05-07 02:01 | 40.09797 | -74.20545 | 20301 ft | 375 kts | 209° |
| 2026-05-07 02:02 | 40.07347 | -74.21774 | 20813 ft | 377 kts | 210° |
| 2026-05-07 02:02 | 40.04888 | -74.23006 | 21318 ft | 380 kts | 210° |
| 2026-05-07 02:02 | 40.02446 | -74.24232 | 21706 ft | 383 kts | 211° |
| 2026-05-07 02:02 | 40.00073 | -74.25729 | 22154 ft | 377 kts | 219° |
| 2026-05-07 02:03 | 39.97938 | -74.27652 | 22686 ft | 371 kts | 225° |
| 2026-05-07 02:03 | 39.95871 | -74.29665 | 23198 ft | 372 kts | 225° |
| 2026-05-07 02:03 | 39.93790 | -74.31677 | 23626 ft | 374 kts | 225° |
| 2026-05-07 02:03 | 39.91689 | -74.33693 | 24010 ft | 376 kts | 225° |
| 2026-05-07 02:04 | 39.89579 | -74.35708 | 24425 ft | 376 kts | 225° |
| 2026-05-07 02:04 | 39.87467 | -74.37718 | 24924 ft | 375 kts | 225° |
| 2026-05-07 02:04 | 39.85358 | -74.39722 | 25358 ft | 375 kts | 226° |
| 2026-05-07 02:04 | 39.83244 | -74.41732 | 25619 ft | 378 kts | 225° |
| 2026-05-07 02:05 | 39.81185 | -74.43843 | 25875 ft | 374 kts | 231° |
| 2026-05-07 02:05 | 39.79355 | -74.46231 | 25880 ft | 372 kts | 234° |
| 2026-05-07 02:05 | 39.77557 | -74.48650 | 25872 ft | 371 kts | 234° |
| 2026-05-07 02:05 | 39.75763 | -74.51050 | 25876 ft | 370 kts | 234° |
| 2026-05-07 02:06 | 39.73970 | -74.53443 | 25877 ft | 370 kts | 233° |
| 2026-05-07 02:06 | 39.72161 | -74.55852 | 25968 ft | 374 kts | 233° |
| 2026-05-07 02:06 | 39.70340 | -74.58270 | 26379 ft | 373 kts | 233° |
| 2026-05-07 02:06 | 39.68535 | -74.60656 | 27009 ft | 367 kts | 234° |
| 2026-05-07 02:07 | 39.66763 | -74.62992 | 27711 ft | 360 kts | 234° |
| 2026-05-07 02:07 | 39.63305 | -74.67551 | 28998 ft | 350 kts | 234° |
| 2026-05-07 02:07 | 39.61606 | -74.69793 | 29518 ft | 347 kts | 235° |
| 2026-05-07 02:08 | 39.59921 | -74.72019 | 30023 ft | 345 kts | 235° |
| 2026-05-07 02:08 | 39.58246 | -74.74229 | 30449 ft | 343 kts | 235° |
| 2026-05-07 02:08 | 39.56575 | -74.76432 | 30801 ft | 342 kts | 235° |
| 2026-05-07 02:08 | 39.54904 | -74.78635 | 31137 ft | 342 kts | 235° |
| 2026-05-07 02:09 | 39.53227 | -74.80845 | 31298 ft | 347 kts | 235° |
| 2026-05-07 02:09 | 39.51523 | -74.83091 | 31439 ft | 352 kts | 235° |
| 2026-05-07 02:09 | 39.49796 | -74.85364 | 31570 ft | 356 kts | 235° |
| 2026-05-07 02:09 | 39.48046 | -74.87662 | 31709 ft | 359 kts | 234° |
| 2026-05-07 02:10 | 39.46282 | -74.89974 | 31880 ft | 363 kts | 234° |
| 2026-05-07 02:10 | 39.44509 | -74.92294 | 32130 ft | 364 kts | 234° |
| 2026-05-07 02:10 | 39.42727 | -74.94624 | 32386 ft | 364 kts | 234° |
| 2026-05-07 02:10 | 39.40943 | -74.96953 | 32672 ft | 364 kts | 234° |
| 2026-05-07 02:11 | 39.39164 | -74.99276 | 33021 ft | 363 kts | 234° |
| 2026-05-07 02:11 | 39.37391 | -75.01590 | 33339 ft | 362 kts | 234° |
| 2026-05-07 02:11 | 39.35618 | -75.03906 | 33590 ft | 363 kts | 234° |
| 2026-05-07 02:11 | 39.33845 | -75.06220 | 33887 ft | 362 kts | 235° |
| 2026-05-07 02:12 | 39.30303 | -75.10829 | 33886 ft | 359 kts | 235° |
| 2026-05-07 02:12 | 39.27269 | -75.14543 | 33871 ft | 365 kts | 232° |
| 2026-05-07 02:13 | 39.23431 | -75.18972 | 33886 ft | 374 kts | 231° |
| 2026-05-07 02:13 | 39.19516 | -75.23501 | 33893 ft | 381 kts | 231° |
| 2026-05-07 02:14 | 39.15554 | -75.28109 | 33895 ft | 385 kts | 231° |
| 2026-05-07 02:14 | 39.11569 | -75.32748 | 33886 ft | 386 kts | 231° |
| 2026-05-07 02:15 | 39.07577 | -75.37392 | 33880 ft | 387 kts | 231° |
| 2026-05-07 02:15 | 39.03300 | -75.41708 | 33890 ft | 404 kts | 219° |
| 2026-05-07 02:16 | 38.97984 | -75.44521 | 33890 ft | 426 kts | 207° |
| 2026-05-07 02:16 | 38.95001 | -75.45194 | 33887 ft | 440 kts | 200° |
| 2026-05-07 02:16 | 38.91945 | -75.45609 | 33885 ft | 443 kts | 199° |
| 2026-05-07 02:17 | 38.85815 | -75.46366 | 33861 ft | 442 kts | 199° |
| 2026-05-07 02:17 | 38.79697 | -75.47189 | 33893 ft | 442 kts | 199° |
| 2026-05-07 02:18 | 38.73585 | -75.48048 | 33907 ft | 442 kts | 199° |
| 2026-05-07 02:18 | 38.67457 | -75.48891 | 33907 ft | 443 kts | 199° |
| 2026-05-07 02:19 | 38.61324 | -75.49715 | 33883 ft | 444 kts | 199° |
| 2026-05-07 02:19 | 38.55171 | -75.50542 | 33899 ft | 445 kts | 199° |
| 2026-05-07 02:20 | 38.49015 | -75.51371 | 33902 ft | 445 kts | 199° |
| 2026-05-07 02:20 | 38.42856 | -75.52199 | 33869 ft | 445 kts | 199° |
| 2026-05-07 02:21 | 38.36733 | -75.53182 | 33897 ft | 434 kts | 206° |
| 2026-05-07 02:21 | 38.33900 | -75.54304 | 33914 ft | 421 kts | 213° |
| 2026-05-07 02:21 | 38.31259 | -75.55821 | 33909 ft | 412 kts | 219° |
| 2026-05-07 02:22 | 38.26552 | -75.59744 | 33906 ft | 403 kts | 225° |
| 2026-05-07 02:22 | 38.21941 | -75.63805 | 33877 ft | 404 kts | 225° |
| 2026-05-07 02:23 | 38.17301 | -75.67860 | 33896 ft | 406 kts | 225° |
| 2026-05-07 02:23 | 38.12632 | -75.71918 | 33905 ft | 407 kts | 225° |
| 2026-05-07 02:24 | 38.07956 | -75.75973 | 33902 ft | 408 kts | 224° |
| 2026-05-07 02:24 | 38.03264 | -75.80034 | 33918 ft | 408 kts | 225° |
| 2026-05-07 02:25 | 37.98574 | -75.84087 | 33903 ft | 408 kts | 225° |
| 2026-05-07 02:25 | 37.93902 | -75.88119 | 33910 ft | 409 kts | 225° |
| 2026-05-07 02:26 | 37.89200 | -75.92172 | 33923 ft | 410 kts | 225° |
| 2026-05-07 02:26 | 37.84485 | -75.96229 | 33897 ft | 410 kts | 225° |
| 2026-05-07 02:27 | 37.79766 | -76.00282 | 33868 ft | 410 kts | 225° |
| 2026-05-07 02:27 | 37.75031 | -76.04345 | 33894 ft | 412 kts | 225° |
| 2026-05-07 02:28 | 37.70285 | -76.08410 | 33904 ft | 413 kts | 225° |
| 2026-05-07 02:28 | 37.65519 | -76.12485 | 33905 ft | 414 kts | 225° |
| 2026-05-07 02:29 | 37.60424 | -76.16087 | 33931 ft | 431 kts | 214° |
| 2026-05-07 02:29 | 37.57553 | -76.17330 | 33910 ft | 443 kts | 207° |
| 2026-05-07 02:29 | 37.54491 | -76.18117 | 33920 ft | 451 kts | 203° |
| 2026-05-07 02:30 | 37.48303 | -76.19446 | 33914 ft | 451 kts | 202° |
| 2026-05-07 02:30 | 37.42118 | -76.20761 | 33927 ft | 450 kts | 202° |
| 2026-05-07 02:31 | 37.35952 | -76.22109 | 33889 ft | 449 kts | 203° |
| 2026-05-07 02:31 | 37.29787 | -76.23476 | 33914 ft | 451 kts | 203° |
| 2026-05-07 02:32 | 37.23603 | -76.24850 | 33929 ft | 452 kts | 203° |
| 2026-05-07 02:32 | 37.17407 | -76.26222 | 33926 ft | 453 kts | 203° |
| 2026-05-07 02:33 | 37.11237 | -76.27584 | 33924 ft | 454 kts | 202° |
| 2026-05-07 02:33 | 37.05005 | -76.28960 | 33925 ft | 456 kts | 202° |
| 2026-05-07 02:34 | 36.98711 | -76.30347 | 33949 ft | 457 kts | 202° |
| 2026-05-07 02:34 | 36.92433 | -76.31726 | 33945 ft | 458 kts | 202° |
| 2026-05-07 02:35 | 36.86148 | -76.33103 | 33939 ft | 459 kts | 202° |
| 2026-05-07 02:35 | 36.79892 | -76.34473 | 33945 ft | 460 kts | 202° |
| 2026-05-07 02:36 | 36.73583 | -76.35852 | 33956 ft | 461 kts | 202° |
| 2026-05-07 02:36 | 36.67224 | -76.37240 | 33931 ft | 461 kts | 202° |
| 2026-05-07 02:37 | 36.60902 | -76.38617 | 33961 ft | 462 kts | 202° |
| 2026-05-07 02:37 | 36.54613 | -76.39986 | 33935 ft | 462 kts | 202° |
| 2026-05-07 02:38 | 36.48282 | -76.41361 | 33944 ft | 462 kts | 202° |
| 2026-05-07 02:38 | 36.41942 | -76.42735 | 33943 ft | 462 kts | 202° |
| 2026-05-07 02:39 | 36.35609 | -76.44106 | 33952 ft | 462 kts | 202° |
| 2026-05-07 02:39 | 36.29272 | -76.45476 | 33955 ft | 462 kts | 202° |
| 2026-05-07 02:40 | 36.22929 | -76.46844 | 33964 ft | 463 kts | 202° |
| 2026-05-07 02:40 | 36.16582 | -76.48212 | 33966 ft | 463 kts | 202° |
| 2026-05-07 02:41 | 36.10242 | -76.49575 | 33982 ft | 463 kts | 202° |
| 2026-05-07 02:41 | 36.03897 | -76.50943 | 33984 ft | 463 kts | 202° |
| 2026-05-07 02:42 | 35.97553 | -76.52298 | 33951 ft | 462 kts | 201° |
| 2026-05-07 02:42 | 35.91235 | -76.53687 | 33970 ft | 457 kts | 205° |
| 2026-05-07 02:43 | 35.88235 | -76.54797 | 33978 ft | 443 kts | 213° |
| 2026-05-07 02:43 | 35.85490 | -76.56396 | 33973 ft | 434 kts | 218° |
| 2026-05-07 02:43 | 35.80113 | -76.59795 | 33957 ft | 435 kts | 218° |
| 2026-05-07 02:44 | 35.74713 | -76.63167 | 33946 ft | 435 kts | 217° |
| 2026-05-07 02:44 | 35.69291 | -76.66509 | 33964 ft | 437 kts | 217° |
| 2026-05-07 02:45 | 35.63850 | -76.69851 | 33969 ft | 438 kts | 217° |
| 2026-05-07 02:45 | 35.58387 | -76.73199 | 33972 ft | 439 kts | 217° |
| 2026-05-07 02:46 | 35.52917 | -76.76545 | 33972 ft | 439 kts | 216° |
| 2026-05-07 02:46 | 35.47432 | -76.79898 | 33969 ft | 442 kts | 215° |
| 2026-05-07 02:47 | 35.41900 | -76.83275 | 33971 ft | 445 kts | 215° |
| 2026-05-07 02:47 | 35.36341 | -76.86661 | 33977 ft | 448 kts | 215° |
| 2026-05-07 02:48 | 35.30761 | -76.90053 | 33978 ft | 447 kts | 215° |
| 2026-05-07 02:48 | 35.25199 | -76.93431 | 33971 ft | 446 kts | 215° |
| 2026-05-07 02:49 | 35.19677 | -76.96835 | 33971 ft | 443 kts | 216° |
| 2026-05-07 02:49 | 35.14200 | -77.00280 | 34007 ft | 442 kts | 216° |
| 2026-05-07 02:50 | 35.08768 | -77.03692 | 34007 ft | 442 kts | 216° |
| 2026-05-07 02:50 | 35.03299 | -77.07114 | 33994 ft | 442 kts | 215° |
| 2026-05-07 02:51 | 34.97815 | -77.10536 | 34009 ft | 443 kts | 215° |
| 2026-05-07 02:51 | 34.92314 | -77.13962 | 34007 ft | 444 kts | 215° |
| 2026-05-07 02:52 | 34.86800 | -77.17389 | 34018 ft | 445 kts | 215° |
| 2026-05-07 02:52 | 34.81274 | -77.20819 | 33991 ft | 446 kts | 214° |
| 2026-05-07 02:53 | 34.75734 | -77.24252 | 34005 ft | 448 kts | 214° |
| 2026-05-07 02:53 | 34.70173 | -77.27696 | 34009 ft | 449 kts | 214° |
| 2026-05-07 02:54 | 34.64595 | -77.31143 | 34008 ft | 450 kts | 214° |
| 2026-05-07 02:54 | 34.59004 | -77.34593 | 34011 ft | 451 kts | 214° |
| 2026-05-07 02:55 | 34.53407 | -77.38041 | 34000 ft | 451 kts | 213° |
| 2026-05-07 02:55 | 34.47632 | -77.41121 | 34002 ft | 460 kts | 203° |
| 2026-05-07 02:56 | 34.41262 | -77.42569 | 34007 ft | 469 kts | 195° |
| 2026-05-07 02:56 | 34.34810 | -77.43750 | 34005 ft | 469 kts | 195° |
| 2026-05-07 02:57 | 34.28369 | -77.44967 | 34005 ft | 468 kts | 197° |
| 2026-05-07 02:57 | 34.23019 | -77.46006 | 34010 ft | 469 kts | 197° |
| 2026-05-07 02:58 | 34.16576 | -77.47267 | 34025 ft | 469 kts | 197° |
| 2026-05-07 02:58 | 34.10129 | -77.48527 | 34021 ft | 469 kts | 197° |
| 2026-05-07 02:59 | 34.03677 | -77.49784 | 34024 ft | 471 kts | 198° |
| 2026-05-07 02:59 | 33.97197 | -77.51044 | 34034 ft | 473 kts | 198° |
| 2026-05-07 03:00 | 33.90692 | -77.52310 | 34027 ft | 474 kts | 198° |
| 2026-05-07 03:00 | 33.84169 | -77.53572 | 34034 ft | 475 kts | 198° |
| 2026-05-07 03:01 | 33.77635 | -77.54833 | 34032 ft | 476 kts | 198° |
| 2026-05-07 03:01 | 33.71081 | -77.56099 | 34035 ft | 478 kts | 198° |
| 2026-05-07 03:02 | 33.64508 | -77.57366 | 34038 ft | 478 kts | 198° |
| 2026-05-07 03:02 | 33.57943 | -77.58649 | 34004 ft | 476 kts | 200° |
| 2026-05-07 03:03 | 33.51623 | -77.60674 | 34032 ft | 468 kts | 207° |
| 2026-05-07 03:03 | 33.45403 | -77.62964 | 34048 ft | 468 kts | 207° |
| 2026-05-07 03:04 | 33.39166 | -77.65219 | 34045 ft | 469 kts | 206° |
| 2026-05-07 03:04 | 33.32908 | -77.67421 | 34018 ft | 469 kts | 206° |
| 2026-05-07 03:05 | 33.26643 | -77.69603 | 34041 ft | 469 kts | 206° |
| 2026-05-07 03:05 | 33.20370 | -77.71783 | 34047 ft | 470 kts | 206° |
| 2026-05-07 03:06 | 33.14093 | -77.73964 | 34047 ft | 470 kts | 206° |
| 2026-05-07 03:06 | 33.07814 | -77.76143 | 34032 ft | 470 kts | 206° |
| 2026-05-07 03:07 | 33.01532 | -77.78321 | 34047 ft | 470 kts | 206° |
| 2026-05-07 03:07 | 32.95244 | -77.80498 | 34054 ft | 471 kts | 206° |
| 2026-05-07 03:08 | 32.88941 | -77.82676 | 34046 ft | 472 kts | 206° |
| 2026-05-07 03:08 | 32.82633 | -77.84852 | 34051 ft | 472 kts | 206° |
| 2026-05-07 03:09 | 32.76328 | -77.87025 | 34059 ft | 472 kts | 206° |
| 2026-05-07 03:09 | 32.70017 | -77.89197 | 34054 ft | 472 kts | 206° |
| 2026-05-07 03:10 | 32.63694 | -77.91341 | 34053 ft | 473 kts | 205° |
| 2026-05-07 03:10 | 32.57347 | -77.93392 | 34040 ft | 473 kts | 204° |
| 2026-05-07 03:11 | 32.50983 | -77.95434 | 34059 ft | 474 kts | 204° |
| 2026-05-07 03:11 | 32.44622 | -77.97483 | 34063 ft | 474 kts | 204° |
| 2026-05-07 03:12 | 32.38256 | -77.99539 | 34057 ft | 474 kts | 204° |
| 2026-05-07 03:12 | 32.31886 | -78.01594 | 34061 ft | 474 kts | 204° |
| 2026-05-07 03:13 | 32.25519 | -78.03646 | 34062 ft | 475 kts | 204° |
| 2026-05-07 03:13 | 32.19138 | -78.05699 | 34071 ft | 476 kts | 204° |
| 2026-05-07 03:14 | 32.12742 | -78.07753 | 34073 ft | 477 kts | 204° |
| 2026-05-07 03:15 | 32.03143 | -78.10831 | 34053 ft | 477 kts | 203° |
| 2026-05-07 03:15 | 31.96725 | -78.12885 | 34072 ft | 478 kts | 203° |
| 2026-05-07 03:16 | 31.90296 | -78.14939 | 34074 ft | 479 kts | 203° |
| 2026-05-07 03:16 | 31.83900 | -78.16980 | 34076 ft | 480 kts | 203° |
| 2026-05-07 03:17 | 31.77455 | -78.19034 | 34067 ft | 480 kts | 202° |
| 2026-05-07 03:17 | 31.71012 | -78.21083 | 34079 ft | 480 kts | 202° |
| 2026-05-07 03:18 | 31.64570 | -78.23130 | 34080 ft | 480 kts | 202° |
| 2026-05-07 03:18 | 31.58121 | -78.25177 | 34080 ft | 480 kts | 202° |
| 2026-05-07 03:19 | 31.51680 | -78.27218 | 34062 ft | 479 kts | 202° |
| 2026-05-07 03:19 | 31.45248 | -78.29261 | 34079 ft | 478 kts | 202° |
| 2026-05-07 03:20 | 31.38855 | -78.31392 | 34087 ft | 477 kts | 203° |
| 2026-05-07 03:20 | 31.32481 | -78.33548 | 34085 ft | 477 kts | 203° |
| 2026-05-07 03:21 | 31.26095 | -78.35695 | 34073 ft | 477 kts | 202° |
| 2026-05-07 03:21 | 31.19715 | -78.37827 | 34088 ft | 476 kts | 202° |
| 2026-05-07 03:22 | 31.13343 | -78.39950 | 34091 ft | 476 kts | 202° |
| 2026-05-07 03:22 | 31.06969 | -78.42072 | 34092 ft | 476 kts | 202° |
| 2026-05-07 03:23 | 31.00603 | -78.44188 | 34094 ft | 476 kts | 202° |
| 2026-05-07 03:23 | 30.94233 | -78.46302 | 34087 ft | 476 kts | 202° |
| 2026-05-07 03:24 | 30.87865 | -78.48413 | 34097 ft | 475 kts | 202° |
| 2026-05-07 03:24 | 30.81503 | -78.50520 | 34093 ft | 475 kts | 202° |
| 2026-05-07 03:25 | 30.75140 | -78.52623 | 34101 ft | 475 kts | 202° |
| 2026-05-07 03:25 | 30.68777 | -78.54724 | 34098 ft | 476 kts | 202° |
| 2026-05-07 03:26 | 30.62406 | -78.56825 | 34102 ft | 476 kts | 202° |
| 2026-05-07 03:26 | 30.56026 | -78.58925 | 34107 ft | 477 kts | 202° |
| 2026-05-07 03:27 | 30.49640 | -78.61025 | 34103 ft | 477 kts | 202° |
| 2026-05-07 03:27 | 30.43257 | -78.63121 | 34091 ft | 477 kts | 201° |
| 2026-05-07 03:28 | 30.36872 | -78.65214 | 34106 ft | 477 kts | 201° |
| 2026-05-07 03:28 | 30.30483 | -78.67307 | 34106 ft | 477 kts | 201° |
| 2026-05-07 03:29 | 30.24097 | -78.69396 | 34106 ft | 477 kts | 201° |
| 2026-05-07 03:29 | 30.17710 | -78.71482 | 34106 ft | 476 kts | 201° |
| 2026-05-07 03:30 | 30.11334 | -78.73566 | 34105 ft | 476 kts | 201° |
| 2026-05-07 03:30 | 30.04965 | -78.75648 | 34106 ft | 476 kts | 201° |
| 2026-05-07 03:31 | 29.98597 | -78.77726 | 34109 ft | 476 kts | 201° |
| 2026-05-07 03:31 | 29.92231 | -78.79801 | 34109 ft | 475 kts | 201° |
| 2026-05-07 03:32 | 29.85861 | -78.81874 | 34101 ft | 475 kts | 201° |
| 2026-05-07 03:32 | 29.79495 | -78.83944 | 34107 ft | 476 kts | 201° |
| 2026-05-07 03:33 | 29.72933 | -78.85352 | 34120 ft | 484 kts | 192° |
| 2026-05-07 03:33 | 29.66220 | -78.86117 | 34110 ft | 485 kts | 191° |
| 2026-05-07 03:34 | 29.59500 | -78.86881 | 34109 ft | 485 kts | 192° |
| 2026-05-07 03:34 | 29.52781 | -78.87741 | 34113 ft | 486 kts | 192° |
| 2026-05-07 03:35 | 29.46048 | -78.88646 | 34113 ft | 487 kts | 192° |
| 2026-05-07 03:35 | 29.39310 | -78.89557 | 34113 ft | 488 kts | 192° |
| 2026-05-07 03:36 | 29.32564 | -78.90464 | 34101 ft | 489 kts | 193° |
| 2026-05-07 03:36 | 29.25805 | -78.91369 | 34113 ft | 490 kts | 193° |
| 2026-05-07 03:37 | 29.19074 | -78.92268 | 34112 ft | 490 kts | 193° |
| 2026-05-07 03:37 | 29.12247 | -78.93178 | 34115 ft | 491 kts | 193° |
| 2026-05-07 03:38 | 29.05464 | -78.94083 | 34096 ft | 491 kts | 193° |
| 2026-05-07 03:38 | 28.98673 | -78.94986 | 34113 ft | 492 kts | 193° |
| 2026-05-07 03:39 | 28.93022 | -78.95737 | 34117 ft | 492 kts | 193° |
| 2026-05-07 03:39 | 28.86217 | -78.96640 | 34114 ft | 493 kts | 193° |
| 2026-05-07 03:40 | 28.79412 | -78.97542 | 34092 ft | 493 kts | 193° |
| 2026-05-07 03:40 | 28.72602 | -78.98443 | 34109 ft | 492 kts | 193° |
| 2026-05-07 03:41 | 28.65796 | -78.99343 | 34119 ft | 492 kts | 193° |
| 2026-05-07 03:41 | 28.58987 | -79.00243 | 34114 ft | 493 kts | 193° |
| 2026-05-07 03:42 | 28.52177 | -79.01141 | 34115 ft | 492 kts | 193° |
| 2026-05-07 03:42 | 28.45372 | -79.02038 | 34110 ft | 492 kts | 193° |
| 2026-05-07 03:43 | 28.38565 | -79.02933 | 34123 ft | 493 kts | 193° |
| 2026-05-07 03:43 | 28.31830 | -79.04137 | 34115 ft | 483 kts | 202° |
| 2026-05-07 03:44 | 28.25478 | -79.06519 | 34121 ft | 480 kts | 206° |
| 2026-05-07 03:44 | 28.19181 | -79.09051 | 34107 ft | 480 kts | 205° |
| 2026-05-07 03:45 | 28.12850 | -79.11492 | 34113 ft | 481 kts | 204° |
| 2026-05-07 03:45 | 28.06493 | -79.13868 | 34113 ft | 482 kts | 204° |
| 2026-05-07 03:46 | 28.00119 | -79.16230 | 34117 ft | 482 kts | 204° |
| 2026-05-07 03:46 | 27.93752 | -79.18588 | 34102 ft | 482 kts | 204° |
| 2026-05-07 03:47 | 27.87378 | -79.20948 | 34112 ft | 482 kts | 204° |
| 2026-05-07 03:47 | 27.81012 | -79.23307 | 34116 ft | 482 kts | 204° |
| 2026-05-07 03:48 | 27.74638 | -79.25665 | 34114 ft | 482 kts | 204° |
| 2026-05-07 03:48 | 27.71474 | -79.26831 | 34101 ft | 471 kts | 204° |
| 2026-05-07 03:48 | 27.68416 | -79.27952 | 34088 ft | 454 kts | 204° |
| 2026-05-07 03:48 | 27.65463 | -79.29034 | 33953 ft | 440 kts | 204° |
| 2026-05-07 03:49 | 27.62577 | -79.30098 | 33647 ft | 432 kts | 204° |
| 2026-05-07 03:49 | 27.59734 | -79.31148 | 33227 ft | 429 kts | 204° |
| 2026-05-07 03:49 | 27.56912 | -79.32193 | 32860 ft | 425 kts | 204° |
| 2026-05-07 03:49 | 27.54108 | -79.33229 | 32451 ft | 422 kts | 204° |
| 2026-05-07 03:50 | 27.51334 | -79.34252 | 32063 ft | 419 kts | 204° |
| 2026-05-07 03:50 | 27.48566 | -79.35272 | 31671 ft | 416 kts | 205° |
| 2026-05-07 03:50 | 27.45824 | -79.36281 | 31283 ft | 414 kts | 205° |
| 2026-05-07 03:50 | 27.43088 | -79.37287 | 30903 ft | 412 kts | 205° |
| 2026-05-07 03:51 | 27.40374 | -79.38285 | 30515 ft | 410 kts | 205° |
| 2026-05-07 03:51 | 27.37661 | -79.39282 | 30102 ft | 409 kts | 205° |
| 2026-05-07 03:51 | 27.34968 | -79.40270 | 29656 ft | 406 kts | 205° |
| 2026-05-07 03:51 | 27.32293 | -79.41251 | 29237 ft | 403 kts | 205° |
| 2026-05-07 03:52 | 27.29633 | -79.42225 | 28826 ft | 400 kts | 205° |
| 2026-05-07 03:52 | 27.26995 | -79.43190 | 28425 ft | 397 kts | 205° |
| 2026-05-07 03:52 | 27.24381 | -79.44145 | 28035 ft | 394 kts | 205° |
| 2026-05-07 03:52 | 27.21785 | -79.45095 | 27647 ft | 391 kts | 205° |
| 2026-05-07 03:53 | 27.19204 | -79.46040 | 27270 ft | 389 kts | 205° |
| 2026-05-07 03:53 | 27.16641 | -79.46977 | 26885 ft | 386 kts | 205° |
| 2026-05-07 03:53 | 27.14093 | -79.47909 | 26513 ft | 384 kts | 205° |
| 2026-05-07 03:53 | 27.11560 | -79.48836 | 26133 ft | 382 kts | 204° |
| 2026-05-07 03:54 | 27.09039 | -79.49757 | 25758 ft | 380 kts | 204° |
| 2026-05-07 03:54 | 27.06528 | -79.50674 | 25373 ft | 379 kts | 204° |
| 2026-05-07 03:54 | 27.04022 | -79.51587 | 24999 ft | 377 kts | 204° |
| 2026-05-07 03:54 | 27.01528 | -79.52496 | 24621 ft | 377 kts | 204° |
| 2026-05-07 03:55 | 26.99041 | -79.53402 | 24258 ft | 376 kts | 204° |
| 2026-05-07 03:55 | 26.96558 | -79.54307 | 23879 ft | 375 kts | 204° |
| 2026-05-07 03:55 | 26.94077 | -79.55211 | 23463 ft | 374 kts | 203° |
| 2026-05-07 03:55 | 26.91607 | -79.56109 | 23064 ft | 373 kts | 203° |
| 2026-05-07 03:56 | 26.89147 | -79.57004 | 22682 ft | 370 kts | 203° |
| 2026-05-07 03:56 | 26.86703 | -79.57888 | 22313 ft | 368 kts | 202° |
| 2026-05-07 03:56 | 26.84275 | -79.58763 | 21951 ft | 365 kts | 202° |
| 2026-05-07 03:56 | 26.81866 | -79.59631 | 21594 ft | 363 kts | 202° |
| 2026-05-07 03:57 | 26.79467 | -79.60495 | 21239 ft | 361 kts | 202° |
| 2026-05-07 03:57 | 26.77086 | -79.61353 | 20876 ft | 359 kts | 202° |
| 2026-05-07 03:57 | 26.74719 | -79.62206 | 20528 ft | 357 kts | 201° |
| 2026-05-07 03:57 | 26.72362 | -79.63055 | 20184 ft | 355 kts | 201° |
| 2026-05-07 03:58 | 26.70017 | -79.63900 | 19842 ft | 353 kts | 201° |
| 2026-05-07 03:58 | 26.67684 | -79.64740 | 19502 ft | 351 kts | 201° |
| 2026-05-07 03:58 | 26.65360 | -79.65576 | 19156 ft | 350 kts | 201° |
| 2026-05-07 03:58 | 26.63049 | -79.66407 | 18814 ft | 349 kts | 200° |
| 2026-05-07 03:59 | 26.60739 | -79.67229 | 18472 ft | 348 kts | 200° |
| 2026-05-07 03:59 | 26.58433 | -79.68036 | 18075 ft | 347 kts | 200° |
| 2026-05-07 03:59 | 26.56131 | -79.68839 | 17701 ft | 345 kts | 199° |
| 2026-05-07 03:59 | 26.53846 | -79.69637 | 17325 ft | 343 kts | 199° |
| 2026-05-07 04:00 | 26.51572 | -79.70432 | 16982 ft | 342 kts | 199° |
| 2026-05-07 04:00 | 26.49307 | -79.71224 | 16628 ft | 340 kts | 199° |
| 2026-05-07 04:00 | 26.47058 | -79.72021 | 16277 ft | 338 kts | 201° |
| 2026-05-07 04:00 | 26.45051 | -79.73317 | 15979 ft | 332 kts | 224° |
| 2026-05-07 04:01 | 26.43466 | -79.75164 | 15801 ft | 329 kts | 230° |
| 2026-05-07 04:01 | 26.41930 | -79.77091 | 15585 ft | 336 kts | 230° |
| 2026-05-07 04:01 | 26.40357 | -79.79045 | 15364 ft | 341 kts | 229° |
| 2026-05-07 04:01 | 26.38757 | -79.81008 | 15129 ft | 341 kts | 229° |
| 2026-05-07 04:02 | 26.37271 | -79.83053 | 14895 ft | 339 kts | 237° |
| 2026-05-07 04:02 | 26.35957 | -79.85227 | 14678 ft | 337 kts | 238° |
| 2026-05-07 04:02 | 26.34657 | -79.87397 | 14456 ft | 336 kts | 237° |
| 2026-05-07 04:02 | 26.33339 | -79.89547 | 14233 ft | 335 kts | 237° |
| 2026-05-07 04:03 | 26.32023 | -79.91665 | 14002 ft | 330 kts | 237° |
| 2026-05-07 04:03 | 26.30736 | -79.93722 | 13791 ft | 325 kts | 236° |
| 2026-05-07 04:03 | 26.29427 | -79.95810 | 13549 ft | 323 kts | 236° |
| 2026-05-07 04:03 | 26.28141 | -79.97861 | 13326 ft | 324 kts | 236° |
| 2026-05-07 04:04 | 26.26853 | -79.99914 | 13118 ft | 323 kts | 236° |
| 2026-05-07 04:04 | 26.25315 | -80.01734 | 12868 ft | 324 kts | 213° |
| 2026-05-07 04:04 | 26.23275 | -80.02736 | 12689 ft | 321 kts | 193° |
| 2026-05-07 04:04 | 26.21094 | -80.03258 | 12491 ft | 320 kts | 189° |
| 2026-05-07 04:05 | 26.18905 | -80.03727 | 12265 ft | 321 kts | 189° |
| 2026-05-07 04:05 | 26.16714 | -80.04196 | 12062 ft | 321 kts | 189° |
| 2026-05-07 04:05 | 26.14523 | -80.04676 | 11846 ft | 321 kts | 189° |
| 2026-05-07 04:05 | 26.12334 | -80.05167 | 11626 ft | 320 kts | 189° |
| 2026-05-07 04:06 | 26.10162 | -80.05661 | 11408 ft | 316 kts | 189° |
| 2026-05-07 04:06 | 26.08021 | -80.06150 | 11199 ft | 312 kts | 189° |
| 2026-05-07 04:06 | 26.05904 | -80.06649 | 10954 ft | 309 kts | 191° |
| 2026-05-07 04:06 | 26.03809 | -80.07190 | 10703 ft | 308 kts | 191° |
| 2026-05-07 04:07 | 26.01729 | -80.07741 | 10452 ft | 307 kts | 191° |
| 2026-05-07 04:07 | 25.99660 | -80.08286 | 10211 ft | 304 kts | 191° |
| 2026-05-07 04:07 | 25.97636 | -80.08815 | 10124 ft | 294 kts | 191° |
| 2026-05-07 04:07 | 25.95681 | -80.09325 | 10094 ft | 283 kts | 191° |
| 2026-05-07 04:08 | 25.93807 | -80.09812 | 10072 ft | 270 kts | 190° |
| 2026-05-07 04:08 | 25.92102 | -80.10560 | 10067 ft | 261 kts | 216° |
| 2026-05-07 04:08 | 25.90785 | -80.11931 | 10110 ft | 266 kts | 226° |
| 2026-05-07 04:08 | 25.89546 | -80.13458 | 10104 ft | 265 kts | 227° |
| 2026-05-07 04:09 | 25.88383 | -80.15036 | 10074 ft | 264 kts | 240° |
| 2026-05-07 04:09 | 25.87865 | -80.16958 | 10109 ft | 259 kts | 265° |
| 2026-05-07 04:09 | 25.87769 | -80.18979 | 10092 ft | 259 kts | 270° |
| 2026-05-07 04:09 | 25.87748 | -80.20972 | 10096 ft | 258 kts | 270° |
| 2026-05-07 04:10 | 25.87714 | -80.22934 | 10094 ft | 257 kts | 269° |
| 2026-05-07 04:10 | 25.87664 | -80.24921 | 10090 ft | 257 kts | 269° |
| 2026-05-07 04:10 | 25.87606 | -80.26903 | 10091 ft | 257 kts | 269° |
| 2026-05-07 04:10 | 25.87621 | -80.28886 | 10077 ft | 257 kts | 283° |
| 2026-05-07 04:11 | 25.88309 | -80.30676 | 10114 ft | 251 kts | 301° |
| 2026-05-07 04:11 | 25.89159 | -80.32381 | 10099 ft | 253 kts | 301° |
| 2026-05-07 04:11 | 25.90009 | -80.34102 | 10102 ft | 255 kts | 301° |
| 2026-05-07 04:11 | 25.90857 | -80.35833 | 10097 ft | 256 kts | 300° |
| 2026-05-07 04:12 | 25.91709 | -80.37576 | 10099 ft | 257 kts | 300° |
| 2026-05-07 04:12 | 25.92561 | -80.39326 | 10096 ft | 258 kts | 300° |
| 2026-05-07 04:12 | 25.93410 | -80.41085 | 10099 ft | 259 kts | 297° |
| 2026-05-07 04:12 | 25.93796 | -80.43024 | 10098 ft | 259 kts | 269° |
| 2026-05-07 04:13 | 25.93744 | -80.45024 | 10093 ft | 260 kts | 269° |
| 2026-05-07 04:13 | 25.93700 | -80.47030 | 10097 ft | 260 kts | 269° |
| 2026-05-07 04:13 | 25.93640 | -80.49037 | 10099 ft | 260 kts | 268° |
| 2026-05-07 04:13 | 25.93562 | -80.51049 | 10089 ft | 260 kts | 268° |
| 2026-05-07 04:14 | 25.93476 | -80.53057 | 10087 ft | 260 kts | 268° |
| 2026-05-07 04:14 | 25.93384 | -80.55089 | 10090 ft | 260 kts | 268° |
| 2026-05-07 04:14 | 25.93291 | -80.57090 | 10088 ft | 259 kts | 268° |
| 2026-05-07 04:14 | 25.93201 | -80.59061 | 10084 ft | 259 kts | 268° |
| 2026-05-07 04:15 | 25.93113 | -80.61052 | 10089 ft | 258 kts | 268° |
| 2026-05-07 04:15 | 25.93030 | -80.63038 | 10085 ft | 257 kts | 268° |
| 2026-05-07 04:15 | 25.92949 | -80.65021 | 10088 ft | 256 kts | 268° |
| 2026-05-07 04:15 | 25.92867 | -80.67024 | 10087 ft | 256 kts | 268° |
| 2026-05-07 04:16 | 25.92785 | -80.68995 | 10085 ft | 255 kts | 268° |
| 2026-05-07 04:16 | 25.92698 | -80.70962 | 10087 ft | 255 kts | 268° |
| 2026-05-07 04:16 | 25.92611 | -80.72931 | 10089 ft | 255 kts | 268° |
| 2026-05-07 04:16 | 25.92524 | -80.74900 | 10091 ft | 255 kts | 268° |
| 2026-05-07 04:17 | 25.92439 | -80.76870 | 10088 ft | 256 kts | 268° |
| 2026-05-07 04:17 | 25.92351 | -80.78844 | 10087 ft | 256 kts | 268° |
| 2026-05-07 04:17 | 25.92262 | -80.80822 | 10088 ft | 257 kts | 268° |
| 2026-05-07 04:17 | 25.92168 | -80.82806 | 10093 ft | 257 kts | 268° |
| 2026-05-07 04:18 | 25.92077 | -80.84789 | 10089 ft | 258 kts | 268° |
| 2026-05-07 04:18 | 25.92015 | -80.86106 | 10087 ft | 258 kts | 268° |
| 2026-05-07 04:18 | 25.91893 | -80.88769 | 10089 ft | 258 kts | 268° |
| 2026-05-07 04:18 | 25.91805 | -80.90738 | 10089 ft | 258 kts | 268° |
| 2026-05-07 04:19 | 25.91719 | -80.92730 | 10083 ft | 258 kts | 268° |
| 2026-05-07 04:19 | 25.91640 | -80.94723 | 10089 ft | 258 kts | 268° |
| 2026-05-07 04:19 | 25.91559 | -80.96713 | 10081 ft | 258 kts | 268° |
| 2026-05-07 04:19 | 25.91480 | -80.98701 | 10081 ft | 258 kts | 268° |
| 2026-05-07 04:20 | 25.91400 | -81.00690 | 10081 ft | 257 kts | 268° |
| 2026-05-07 04:20 | 25.91315 | -81.02674 | 10081 ft | 257 kts | 268° |
| 2026-05-07 04:20 | 25.91224 | -81.04658 | 10085 ft | 257 kts | 268° |
| 2026-05-07 04:21 | 25.91073 | -81.07974 | 10080 ft | 256 kts | 268° |
| 2026-05-07 04:21 | 25.90984 | -81.09949 | 10079 ft | 256 kts | 268° |
| 2026-05-07 04:21 | 25.90892 | -81.11924 | 10082 ft | 256 kts | 268° |
| 2026-05-07 04:21 | 25.90802 | -81.13901 | 10082 ft | 256 kts | 268° |
| 2026-05-07 04:22 | 25.90712 | -81.15874 | 10082 ft | 256 kts | 268° |
| 2026-05-07 04:22 | 25.90627 | -81.17853 | 10083 ft | 256 kts | 268° |
| 2026-05-07 04:22 | 25.90536 | -81.19827 | 10080 ft | 256 kts | 268° |
| 2026-05-07 04:22 | 25.90446 | -81.21805 | 10087 ft | 256 kts | 268° |
| 2026-05-07 04:23 | 25.90359 | -81.23781 | 10080 ft | 256 kts | 268° |
| 2026-05-07 04:23 | 25.90274 | -81.25761 | 10080 ft | 257 kts | 268° |
| 2026-05-07 04:23 | 25.90182 | -81.27740 | 10080 ft | 257 kts | 268° |
| 2026-05-07 04:23 | 25.90053 | -81.29717 | 10080 ft | 257 kts | 263° |
| 2026-05-07 04:24 | 25.89837 | -81.31683 | 10085 ft | 257 kts | 263° |
| 2026-05-07 04:24 | 25.89625 | -81.33652 | 10081 ft | 257 kts | 264° |
| 2026-05-07 04:24 | 25.89438 | -81.35622 | 10081 ft | 257 kts | 264° |
| 2026-05-07 04:24 | 25.89270 | -81.37594 | 10080 ft | 257 kts | 265° |
| 2026-05-07 04:25 | 25.89118 | -81.39574 | 10081 ft | 257 kts | 265° |
| 2026-05-07 04:25 | 25.88977 | -81.41550 | 10082 ft | 257 kts | 265° |
| 2026-05-07 04:25 | 25.88843 | -81.43527 | 10077 ft | 257 kts | 266° |
| 2026-05-07 04:25 | 25.88720 | -81.45501 | 10077 ft | 257 kts | 266° |
| 2026-05-07 04:26 | 25.88600 | -81.47479 | 10077 ft | 257 kts | 266° |
| 2026-05-07 04:26 | 25.88482 | -81.49459 | 10081 ft | 257 kts | 266° |
| 2026-05-07 04:26 | 25.88362 | -81.51433 | 10080 ft | 256 kts | 266° |
| 2026-05-07 04:26 | 25.88251 | -81.53409 | 10084 ft | 256 kts | 266° |
| 2026-05-07 04:27 | 25.88139 | -81.55385 | 10082 ft | 256 kts | 266° |
| 2026-05-07 04:27 | 25.88036 | -81.57359 | 10092 ft | 256 kts | 267° |
| 2026-05-07 04:27 | 25.87930 | -81.59336 | 10090 ft | 256 kts | 267° |
| 2026-05-07 04:27 | 25.87830 | -81.61307 | 10090 ft | 256 kts | 266° |
| 2026-05-07 04:28 | 25.87723 | -81.63281 | 10092 ft | 256 kts | 267° |
| 2026-05-07 04:28 | 25.87620 | -81.65252 | 10090 ft | 256 kts | 267° |
| 2026-05-07 04:28 | 25.87471 | -81.67225 | 10083 ft | 256 kts | 262° |
| 2026-05-07 04:28 | 25.87226 | -81.69187 | 10094 ft | 256 kts | 262° |
| 2026-05-07 04:29 | 25.86983 | -81.71150 | 10095 ft | 257 kts | 262° |
| 2026-05-07 04:29 | 25.86760 | -81.73120 | 10094 ft | 258 kts | 263° |
| 2026-05-07 04:29 | 25.86560 | -81.75102 | 10094 ft | 258 kts | 264° |
| 2026-05-07 04:29 | 25.86379 | -81.77092 | 10094 ft | 259 kts | 264° |
| 2026-05-07 04:30 | 25.86215 | -81.79085 | 10095 ft | 260 kts | 265° |
| 2026-05-07 04:30 | 25.86059 | -81.81082 | 10091 ft | 260 kts | 265° |
| 2026-05-07 04:30 | 25.85911 | -81.83083 | 10093 ft | 260 kts | 265° |
| 2026-05-07 04:30 | 25.85767 | -81.85086 | 10088 ft | 260 kts | 265° |
| 2026-05-07 04:31 | 25.85624 | -81.87091 | 10090 ft | 260 kts | 265° |
| 2026-05-07 04:31 | 25.85492 | -81.89092 | 10094 ft | 260 kts | 265° |
| 2026-05-07 04:31 | 25.85367 | -81.91087 | 10091 ft | 259 kts | 266° |
| 2026-05-07 04:31 | 25.85249 | -81.93085 | 10087 ft | 259 kts | 266° |
| 2026-05-07 04:32 | 25.85121 | -81.95078 | 10091 ft | 259 kts | 265° |
| 2026-05-07 04:32 | 25.84992 | -81.97068 | 10090 ft | 258 kts | 265° |
| 2026-05-07 04:32 | 25.84863 | -81.99055 | 10090 ft | 258 kts | 265° |
| 2026-05-07 04:32 | 25.84734 | -82.01044 | 10091 ft | 258 kts | 265° |
| 2026-05-07 04:33 | 25.84605 | -82.03025 | 10093 ft | 258 kts | 265° |
| 2026-05-07 04:33 | 25.84477 | -82.05011 | 10093 ft | 258 kts | 265° |
| 2026-05-07 04:33 | 25.84344 | -82.06994 | 10094 ft | 257 kts | 265° |
| 2026-05-07 04:33 | 25.84210 | -82.08973 | 10096 ft | 258 kts | 265° |
| 2026-05-07 04:34 | 25.84073 | -82.10957 | 10092 ft | 258 kts | 265° |
| 2026-05-07 04:34 | 25.83951 | -82.12915 | 10094 ft | 258 kts | 266° |
| 2026-05-07 04:34 | 25.83834 | -82.14899 | 10097 ft | 258 kts | 266° |
| 2026-05-07 04:34 | 25.83712 | -82.16912 | 10091 ft | 258 kts | 265° |
| 2026-05-07 04:35 | 25.83598 | -82.18874 | 10089 ft | 258 kts | 266° |
| 2026-05-07 04:35 | 25.83473 | -82.20860 | 10088 ft | 258 kts | 265° |
| 2026-05-07 04:35 | 25.83341 | -82.22871 | 10088 ft | 258 kts | 265° |
| 2026-05-07 04:35 | 25.83213 | -82.24838 | 10088 ft | 258 kts | 265° |
| 2026-05-07 04:36 | 25.83079 | -82.26828 | 10092 ft | 259 kts | 265° |
| 2026-05-07 04:36 | 25.82943 | -82.28846 | 10097 ft | 259 kts | 265° |
| 2026-05-07 04:36 | 25.82796 | -82.30832 | 10091 ft | 259 kts | 265° |
| 2026-05-07 04:36 | 25.82646 | -82.32825 | 10093 ft | 259 kts | 265° |
| 2026-05-07 04:37 | 25.82506 | -82.34817 | 10091 ft | 259 kts | 265° |
| 2026-05-07 04:37 | 25.82365 | -82.36786 | 10088 ft | 259 kts | 265° |
| 2026-05-07 04:37 | 25.82234 | -82.38776 | 10090 ft | 259 kts | 265° |
| 2026-05-07 04:37 | 25.82107 | -82.40766 | 10104 ft | 258 kts | 265° |
| 2026-05-07 04:38 | 25.81924 | -82.42748 | 10088 ft | 258 kts | 262° |
| 2026-05-07 04:38 | 25.81694 | -82.44721 | 10085 ft | 258 kts | 262° |
| 2026-05-07 04:38 | 25.81471 | -82.46695 | 10086 ft | 257 kts | 263° |
| 2026-05-07 04:38 | 25.81275 | -82.48668 | 10087 ft | 257 kts | 263° |
| 2026-05-07 04:39 | 25.81097 | -82.50643 | 10083 ft | 257 kts | 264° |
| 2026-05-07 04:39 | 25.80921 | -82.52613 | 10086 ft | 256 kts | 264° |
| 2026-05-07 04:39 | 25.80760 | -82.54582 | 10087 ft | 256 kts | 264° |
| 2026-05-07 04:39 | 25.80611 | -82.56579 | 10092 ft | 256 kts | 265° |
| 2026-05-07 04:40 | 25.80473 | -82.58523 | 10088 ft | 256 kts | 265° |
| 2026-05-07 04:40 | 25.80323 | -82.60498 | 10094 ft | 257 kts | 265° |
| 2026-05-07 04:40 | 25.80185 | -82.62472 | 10087 ft | 257 kts | 265° |
| 2026-05-07 04:40 | 25.80032 | -82.64447 | 10087 ft | 257 kts | 264° |
| 2026-05-07 04:41 | 25.79882 | -82.66430 | 10089 ft | 258 kts | 265° |
| 2026-05-07 04:41 | 25.79734 | -82.68408 | 10093 ft | 258 kts | 265° |
| 2026-05-07 04:41 | 25.79597 | -82.70392 | 10089 ft | 258 kts | 265° |
| 2026-05-07 04:41 | 25.79448 | -82.72377 | 10088 ft | 258 kts | 265° |
| 2026-05-07 04:42 | 25.79301 | -82.74360 | 10092 ft | 258 kts | 265° |
| 2026-05-07 04:42 | 25.79151 | -82.76344 | 10085 ft | 258 kts | 265° |
| 2026-05-07 04:42 | 25.79012 | -82.78330 | 10092 ft | 258 kts | 264° |
| 2026-05-07 04:42 | 25.78778 | -82.80302 | 10091 ft | 257 kts | 260° |
| 2026-05-07 04:43 | 25.78511 | -82.82262 | 10085 ft | 257 kts | 261° |
| 2026-05-07 04:43 | 25.78284 | -82.84234 | 10086 ft | 257 kts | 263° |
| 2026-05-07 04:43 | 25.78086 | -82.86206 | 10085 ft | 257 kts | 263° |
| 2026-05-07 04:43 | 25.77896 | -82.88179 | 10090 ft | 257 kts | 263° |
| 2026-05-07 04:44 | 25.77714 | -82.90151 | 10081 ft | 257 kts | 264° |
| 2026-05-07 04:44 | 25.77627 | -82.92130 | 10085 ft | 257 kts | 268° |
| 2026-05-07 04:44 | 25.77586 | -82.94111 | 10088 ft | 257 kts | 269° |
| 2026-05-07 04:44 | 25.77564 | -82.96094 | 10085 ft | 257 kts | 268° |
| 2026-05-07 04:45 | 25.77482 | -82.98077 | 10085 ft | 257 kts | 265° |
| 2026-05-07 04:45 | 25.77348 | -83.00056 | 10091 ft | 257 kts | 265° |
| 2026-05-07 04:45 | 25.77195 | -83.02033 | 10088 ft | 258 kts | 264° |
| 2026-05-07 04:45 | 25.77034 | -83.04018 | 10083 ft | 258 kts | 265° |
| 2026-05-07 04:46 | 25.76906 | -83.06005 | 10088 ft | 258 kts | 266° |
| 2026-05-07 04:46 | 25.76847 | -83.07994 | 10066 ft | 259 kts | 278° |
| 2026-05-07 04:46 | 25.77231 | -83.09256 | 10077 ft | 255 kts | 306° |